createdAt,value
2019-02-07T00:02:44.698Z,1.30
2019-02-07T00:06:56.989Z,1.30
2019-02-07T00:11:07.989Z,1.20
2019-02-07T00:15:18.811Z,1.20
2019-02-07T00:19:29.211Z,1.20
2019-02-07T00:23:40.063Z,1.20
2019-02-07T00:27:50.900Z,1.30
2019-02-07T00:32:03.207Z,1.30
2019-02-07T00:36:14.051Z,1.30
2019-02-07T00:40:24.966Z,1.30
2019-02-07T00:44:35.809Z,1.30
2019-02-07T00:48:46.659Z,1.20
2019-02-07T00:52:58.886Z,1.20
2019-02-07T00:57:11.031Z,1.20
2019-02-07T01:01:22.693Z,1.20
2019-02-07T01:05:35.813Z,1.20
2019-02-07T01:09:46.649Z,1.20
2019-02-07T01:13:58.740Z,1.20
2019-02-07T01:18:09.570Z,1.10
2019-02-07T01:22:20.160Z,1.10
2019-02-07T01:26:31.119Z,1.10
2019-02-07T01:30:41.943Z,1.00
2019-02-07T01:34:52.752Z,1.10
2019-02-07T01:39:05.754Z,1.00
2019-02-07T01:43:17.132Z,1.00
2019-02-07T01:47:28.542Z,1.00
2019-02-07T01:51:39.430Z,1.00
2019-02-07T01:55:50.361Z,1.00
2019-02-07T02:00:01.315Z,0.90
2019-02-07T02:04:12.835Z,0.90
2019-02-07T02:08:23.818Z,0.90
2019-02-07T02:12:34.647Z,0.90
2019-02-07T02:16:45.573Z,0.90
2019-02-07T02:20:56.796Z,0.90
2019-02-07T02:25:10.069Z,1.00
2019-02-07T02:29:21.009Z,1.00
2019-02-07T02:33:32.108Z,1.00
2019-02-07T02:37:43.037Z,1.00
2019-02-07T02:41:54.161Z,1.00
2019-02-07T02:46:05.041Z,1.10
2019-02-07T02:50:17.996Z,1.10
2019-02-07T02:54:45.908Z,1.10
2019-02-07T02:58:57.128Z,1.10
2019-02-07T03:03:19.277Z,1.10
2019-02-07T03:07:34.705Z,1.10
2019-02-07T03:11:53.104Z,1.10
2019-02-07T03:16:05.967Z,1.10
2019-02-07T03:20:35.081Z,1.10
2019-02-07T03:25:05.418Z,1.10
2019-02-07T03:29:33.692Z,1.00
2019-02-07T03:33:46.249Z,1.10
2019-02-07T03:38:02.232Z,1.00
2019-02-07T03:42:17.661Z,1.00
2019-02-07T03:46:30.334Z,1.00
2019-02-07T03:50:55.041Z,1.00
2019-02-07T03:55:23.977Z,1.10
2019-02-07T03:59:42.759Z,1.10
2019-02-07T04:03:55.324Z,1.10
2019-02-07T04:08:24.087Z,1.00
2019-02-07T04:12:39.705Z,1.00
2019-02-07T04:16:58.246Z,1.00
2019-02-07T04:21:16.493Z,0.90
2019-02-07T04:25:47.139Z,1.00
2019-02-07T04:30:14.762Z,1.00
2019-02-07T04:34:36.385Z,1.10
2019-02-07T04:39:06.962Z,1.20
2019-02-07T04:43:34.871Z,1.30
2019-02-07T04:47:56.256Z,1.40
2019-02-07T04:52:21.278Z,1.40
2019-02-07T04:56:35.997Z,1.40
2019-02-07T05:00:54.472Z,1.40
2019-02-07T05:05:08.902Z,1.40
2019-02-07T05:09:30.484Z,1.30
2019-02-07T05:13:57.794Z,1.30
2019-02-07T05:18:22.278Z,1.30
2019-02-07T05:22:34.840Z,1.20
2019-02-07T05:26:53.621Z,1.30
2019-02-07T05:31:07.330Z,1.30
2019-02-07T05:35:31.980Z,1.30
2019-02-07T05:39:53.471Z,1.20
2019-02-07T05:44:07.218Z,1.10
2019-02-07T05:48:25.047Z,1.00
2019-02-07T05:52:49.484Z,1.00
2019-02-07T05:57:10.959Z,1.00
2019-02-07T06:01:41.841Z,1.10
2019-02-07T06:05:54.533Z,1.20
2019-02-07T06:10:13.351Z,1.30
2019-02-07T06:14:42.040Z,1.30
2019-02-07T06:18:54.594Z,1.40
2019-02-07T06:23:07.062Z,1.50
2019-02-07T06:27:28.517Z,1.60
2019-02-07T06:31:59.720Z,1.70
2019-02-07T06:36:14.643Z,1.70
2019-02-07T06:40:33.553Z,1.80
2019-02-07T06:44:48.723Z,1.90
2019-02-07T06:49:16.576Z,2.00
2019-02-07T06:53:41.361Z,2.00
2019-02-07T06:57:57.180Z,2.10
2019-02-07T07:02:26.243Z,2.30
2019-02-07T07:06:47.677Z,2.40
2019-02-07T07:11:00.152Z,2.40
2019-02-07T07:15:16.007Z,2.60
2019-02-07T07:19:31.354Z,2.80
2019-02-07T07:24:00.572Z,2.90
2019-02-07T07:28:29.963Z,3.00
2019-02-07T07:32:45.587Z,3.00
2019-02-07T07:37:16.111Z,2.90
2019-02-07T07:41:28.561Z,2.90
2019-02-07T07:45:47.551Z,2.90
2019-02-07T07:50:09.088Z,2.90
2019-02-07T07:54:30.185Z,2.90
2019-02-07T07:58:58.238Z,2.90
2019-02-07T08:03:26.906Z,3.00
2019-02-07T08:07:39.683Z,3.10
2019-02-07T08:12:04.355Z,3.10
2019-02-07T08:16:33.049Z,3.10
2019-02-07T08:21:01.271Z,3.10
2019-02-07T08:25:13.744Z,3.10
2019-02-07T08:29:30.716Z,3.10
2019-02-07T08:33:46.292Z,3.00
2019-02-07T08:37:58.804Z,3.00
2019-02-07T08:42:17.297Z,3.00
2019-02-07T08:46:36.027Z,3.00
2019-02-07T08:51:00.648Z,3.00
2019-02-07T08:55:30.350Z,3.00
2019-02-07T08:59:59.005Z,3.10
2019-02-07T09:04:23.729Z,3.20
2019-02-07T09:08:45.243Z,3.30
2019-02-07T09:13:14.363Z,3.40
2019-02-07T09:17:27.495Z,3.40
2019-02-07T09:21:49.247Z,3.40
2019-02-07T09:26:17.466Z,3.30
2019-02-07T09:30:46.509Z,3.40
2019-02-07T09:35:14.215Z,3.40
2019-02-07T09:39:25.884Z,3.40
2019-02-07T09:43:38.448Z,3.40
2019-02-07T09:48:02.320Z,3.40
2019-02-07T09:52:20.132Z,3.40
2019-02-07T09:56:32.921Z,3.60
2019-02-07T10:01:05.075Z,3.60
2019-02-07T10:05:28.482Z,3.70
2019-02-07T10:09:46.307Z,3.80
2019-02-07T10:14:15.668Z,4.00
2019-02-07T10:18:48.159Z,4.20
2019-02-07T10:23:03.947Z,4.00
2019-02-07T10:27:23.098Z,3.90
2019-02-07T10:31:42.052Z,3.90
2019-02-07T10:36:11.112Z,3.90
2019-02-07T10:40:42.419Z,3.90
2019-02-07T10:45:00.538Z,3.90
2019-02-07T10:49:17.320Z,3.90
2019-02-07T10:53:38.821Z,4.00
2019-02-07T10:58:07.607Z,4.20
2019-02-07T11:02:38.870Z,4.50
2019-02-07T11:06:55.104Z,4.70
2019-02-07T11:11:16.232Z,4.60
2019-02-07T11:15:29.335Z,4.20
2019-02-07T11:19:56.741Z,3.90
2019-02-07T11:24:12.193Z,3.60
2019-02-07T11:28:29.410Z,3.30
2019-02-07T11:37:26.048Z,3.00
2019-02-07T11:41:54.987Z,3.00
2019-02-07T11:46:13.676Z,3.00
2019-02-07T11:50:29.488Z,3.20
2019-02-07T11:55:00.575Z,3.30
2019-02-07T11:59:28.683Z,3.60
2019-02-07T12:03:47.390Z,3.90
2019-02-07T12:08:02.808Z,4.50
2019-02-07T12:12:30.453Z,4.20
2019-02-07T12:16:43.082Z,4.50
2019-02-07T12:21:01.585Z,5.30
2019-02-07T12:25:30.125Z,5.10
2019-02-07T12:29:59.187Z,4.60
2019-02-07T12:34:13.342Z,4.30
2019-02-07T12:38:26.292Z,4.20
2019-02-07T12:42:38.775Z,4.10
2019-02-07T12:47:03.278Z,4.20
2019-02-07T12:51:32.179Z,4.30
2019-02-07T12:55:52.394Z,4.30
2019-02-07T13:00:07.654Z,4.30
2019-02-07T13:04:23.159Z,4.30
2019-02-07T13:08:36.756Z,4.30
2019-02-07T13:12:55.010Z,4.30
2019-02-07T13:17:07.613Z,4.00
2019-02-07T13:21:37.919Z,3.70
2019-02-07T13:25:59.221Z,3.50
2019-02-07T13:30:21.279Z,3.40
2019-02-07T13:34:43.580Z,3.30
2019-02-07T13:39:01.783Z,3.30
2019-02-07T13:43:32.510Z,3.40
2019-02-07T13:47:54.060Z,3.40
2019-02-07T13:52:25.227Z,3.50
2019-02-07T13:56:37.688Z,3.60
2019-02-07T14:00:59.581Z,3.70
2019-02-07T14:05:28.016Z,3.70
2019-02-07T14:09:55.542Z,3.70
2019-02-07T14:14:13.932Z,3.70
2019-02-07T14:18:26.511Z,3.70
2019-02-07T14:22:54.741Z,3.70
2019-02-07T14:27:07.323Z,3.70
2019-02-07T14:31:36.421Z,3.70
2019-02-07T14:35:54.677Z,3.70
2019-02-07T14:40:13.905Z,3.70
2019-02-07T14:44:26.884Z,3.80
2019-02-07T14:48:37.693Z,3.80
2019-02-07T14:52:48.508Z,3.90
2019-02-07T14:56:59.427Z,3.90
2019-02-07T15:01:10.283Z,3.90
2019-02-07T15:05:21.204Z,4.00
2019-02-07T15:09:32.029Z,4.10
2019-02-07T15:13:42.962Z,4.10
2019-02-07T15:17:53.784Z,4.00
2019-02-07T15:22:04.601Z,3.90
2019-02-07T15:26:15.510Z,3.90
2019-02-07T15:30:28.139Z,3.90
2019-02-07T15:34:40.829Z,3.90
2019-02-07T15:38:51.743Z,4.00
2019-02-07T15:43:02.643Z,4.00
2019-02-07T15:47:14.597Z,4.00
2019-02-07T15:51:25.423Z,4.10
2019-02-07T15:55:36.263Z,4.10
2019-02-07T15:59:48.632Z,4.10
2019-02-07T16:04:09.369Z,4.10
2019-02-07T16:08:20.620Z,4.10
2019-02-07T16:12:31.644Z,4.10
2019-02-07T16:16:42.554Z,4.10
2019-02-07T16:20:53.576Z,4.10
2019-02-07T16:25:07.505Z,4.10
2019-02-07T16:29:18.478Z,4.10
2019-02-07T16:33:29.673Z,4.20
2019-02-07T16:37:40.506Z,4.10
2019-02-07T16:41:52.157Z,4.20
2019-02-07T16:46:03.184Z,4.10
2019-02-07T16:50:17.739Z,4.10
2019-02-07T16:54:28.558Z,4.00
2019-02-07T16:58:39.717Z,4.00
2019-02-07T17:02:50.699Z,3.90
2019-02-07T17:07:12.023Z,3.90
2019-02-07T17:11:24.517Z,3.90
2019-02-07T17:15:37.566Z,3.90
2019-02-07T17:19:49.053Z,3.90
2019-02-07T17:24:01.446Z,3.90
2019-02-07T17:28:12.364Z,4.00
2019-02-07T17:32:23.549Z,3.90
2019-02-07T17:36:34.466Z,4.00
2019-02-07T17:40:45.402Z,4.00
2019-02-07T17:44:56.541Z,3.90
2019-02-07T17:49:09.530Z,3.90
2019-02-07T17:53:20.165Z,3.90
2019-02-07T17:57:31.511Z,3.80
2019-02-07T18:01:44.675Z,3.80
2019-02-07T18:05:55.496Z,3.80
2019-02-07T18:10:09.559Z,3.80
2019-02-07T18:14:20.477Z,3.80
2019-02-07T18:18:31.464Z,3.80
2019-02-07T18:22:42.385Z,3.90
2019-02-07T18:26:54.948Z,3.80
2019-02-07T18:31:05.451Z,3.90
2019-02-07T18:35:22.681Z,3.90
2019-02-07T18:39:33.712Z,3.90
2019-02-07T18:43:44.533Z,3.90
2019-02-07T18:47:55.850Z,3.90
2019-02-07T18:52:09.737Z,3.80
2019-02-07T18:56:23.344Z,3.80
2019-02-07T19:00:35.848Z,3.80
2019-02-07T19:04:46.741Z,3.80
2019-02-07T19:09:00.130Z,3.70
2019-02-07T19:13:11.240Z,3.70
2019-02-07T19:17:23.071Z,3.70
2019-02-07T19:21:34.293Z,3.60
2019-02-07T19:25:45.113Z,3.60
2019-02-07T19:29:56.025Z,3.50
2019-02-07T19:34:06.950Z,3.50
2019-02-07T19:38:19.671Z,3.50
2019-02-07T19:42:30.580Z,3.40
2019-02-07T19:46:41.503Z,3.40
2019-02-07T19:50:52.417Z,3.40
2019-02-07T19:55:02.652Z,3.40
2019-02-07T19:59:15.625Z,3.30
2019-02-07T20:03:25.465Z,3.30
2019-02-07T20:07:36.493Z,3.30
2019-02-07T20:11:47.418Z,3.30
2019-02-07T20:15:58.356Z,3.30
2019-02-07T20:20:12.051Z,3.30
2019-02-07T20:24:25.456Z,3.20
2019-02-07T20:28:36.259Z,3.20
2019-02-07T20:32:50.364Z,3.20
2019-02-07T20:37:01.181Z,3.20
2019-02-07T20:41:12.009Z,3.20
2019-02-07T20:45:22.823Z,3.10
2019-02-07T20:49:34.519Z,3.10
2019-02-07T20:53:45.436Z,3.00
2019-02-07T20:57:56.537Z,3.00
2019-02-07T21:02:09.704Z,2.90
2019-02-07T21:06:20.234Z,2.90
2019-02-07T21:10:37.336Z,2.90
2019-02-07T21:14:48.594Z,2.80
2019-02-07T21:18:59.115Z,2.80
2019-02-07T21:23:10.023Z,2.80
2019-02-07T21:27:20.840Z,2.80
2019-02-07T21:31:31.860Z,2.80
2019-02-07T21:35:42.792Z,2.90
2019-02-07T21:39:54.272Z,2.80
2019-02-07T21:44:05.270Z,2.80
2019-02-07T21:48:17.246Z,2.80
2019-02-07T21:52:28.200Z,2.80
2019-02-07T21:56:39.348Z,2.80
2019-02-07T22:00:50.237Z,2.80
2019-02-07T22:05:01.541Z,2.80
2019-02-07T22:09:13.033Z,2.80
2019-02-07T22:13:25.580Z,2.80
2019-02-07T22:17:36.403Z,2.80
2019-02-07T22:21:47.857Z,2.80
2019-02-07T22:26:00.668Z,2.80
2019-02-07T22:30:14.760Z,2.80
2019-02-07T22:34:26.017Z,2.80
2019-02-07T22:38:36.932Z,2.80
2019-02-07T22:42:48.153Z,2.80
2019-02-07T22:46:59.154Z,2.80
2019-02-07T22:51:10.071Z,2.80
2019-02-07T22:55:21.579Z,2.90
2019-02-07T22:59:33.040Z,2.90
2019-02-07T23:03:43.925Z,2.90
2019-02-07T23:07:54.763Z,2.90
2019-02-07T23:12:05.685Z,3.10
2019-02-07T23:16:17.207Z,3.10
2019-02-07T23:20:28.513Z,3.10
2019-02-07T23:24:39.332Z,3.10
2019-02-07T23:28:50.169Z,3.10
2019-02-07T23:33:00.983Z,3.10
2019-02-07T23:37:11.824Z,3.20
2019-02-07T23:41:22.758Z,3.20
2019-02-07T23:45:33.939Z,3.20
2019-02-07T23:49:44.765Z,3.20
2019-02-07T23:53:56.098Z,3.20
2019-02-07T23:58:06.942Z,3.30
